Time;durP1;ratioP1;P1;durP2;ratioP2;P2;SDS_P1;SDS_P2;PMS_P1;PMS_P2;Temp;Humidity;BMP_temperature;BMP_pressure;BME280_temperature;BME280_humidity;BME280_pressure;Samples;Min_cycle;Max_cycle;Signal;HPM_P1;HPM_P2
2022/11/27 00:09:55;;;;;;;13.53;8.58;;;;;;;-0.94;100.00;100395.73;1802624;78;27500;-74
2022/11/27 00:12:22;;;;;;;14.05;8.48;;;;;;;-0.99;100.00;100396.39;1762472;80;20931;-74
2022/11/27 00:14:49;;;;;;;13.90;8.60;;;;;;;-0.95;100.00;100400.30;1764316;80;21162;-75
2022/11/27 00:17:15;;;;;;;15.48;9.70;;;;;;;-0.92;100.00;100402.56;1760568;80;21478;-75
2022/11/27 00:19:42;;;;;;;17.42;9.78;;;;;;;-0.85;100.00;100397.94;1776930;80;20896;-75
2022/11/27 00:22:08;;;;;;;14.63;8.88;;;;;;;-0.80;100.00;100399.45;1766359;80;20999;-74
2022/11/27 00:24:35;;;;;;;14.90;8.75;;;;;;;-0.75;100.00;100403.66;1768427;80;20844;-74
2022/11/27 00:27:01;;;;;;;13.38;8.90;;;;;;;-0.72;100.00;100406.44;1755194;80;21962;-73
2022/11/27 00:29:29;;;;;;;15.00;9.48;;;;;;;-0.70;100.00;100405.70;1753223;80;20883;-74
2022/11/27 00:31:55;;;;;;;17.52;10.10;;;;;;;-0.70;100.00;100394.91;1757372;80;20845;-73
2022/11/27 00:34:22;;;;;;;16.73;9.80;;;;;;;-0.71;100.00;100399.48;1764570;80;20923;-73
2022/11/27 00:36:49;;;;;;;17.35;9.70;;;;;;;-0.70;100.00;100394.39;1762361;80;20876;-73
2022/11/27 00:39:15;;;;;;;19.45;10.23;;;;;;;-0.70;100.00;100386.82;1753617;80;21147;-74
2022/11/27 00:41:41;;;;;;;15.68;9.50;;;;;;;-0.70;100.00;100391.69;1767413;80;20986;-73
2022/11/27 00:44:08;;;;;;;18.67;9.50;;;;;;;-0.73;100.00;100374.61;1772357;80;20855;-73
2022/11/27 00:46:34;;;;;;;17.00;9.33;;;;;;;-0.73;100.00;100377.30;1751710;80;20966;-73
2022/11/27 00:49:04;;;;;;;15.40;8.85;;;;;;;-0.72;100.00;100378.12;1761315;80;20971;-73
2022/11/27 00:51:31;;;;;;;14.98;9.00;;;;;;;-0.74;100.00;100383.74;1780852;80;21817;-74
2022/11/27 00:53:57;;;;;;;16.07;9.35;;;;;;;-0.78;100.00;100377.14;1780811;80;21426;-74
2022/11/27 00:56:29;;;;;;;18.02;9.18;;;;;;;-0.78;100.00;100379.84;1750098;80;20995;-74
2022/11/27 00:58:57;;;;;;;17.82;10.25;;;;;;;-0.76;100.00;100372.35;1759694;80;21106;-74
2022/11/27 01:01:36;;;;;;;16.45;9.70;;;;;;;-0.75;100.00;100378.57;1758150;80;20909;-74
2022/11/27 01:04:04;;;;;;;16.70;9.73;;;;;;;-0.73;100.00;100377.30;1759129;80;21199;-73
2022/11/27 01:06:32;;;;;;;17.15;10.05;;;;;;;-0.68;100.00;100374.77;1767065;80;20896;-73
2022/11/27 01:08:58;;;;;;;16.12;8.90;;;;;;;-0.67;100.00;100374.24;1731588;80;20912;-74
2022/11/27 01:11:30;;;;;;;14.20;8.58;;;;;;;-0.71;100.00;100368.47;1730979;81;21008;-75
2022/11/27 01:13:59;;;;;;;15.60;8.85;;;;;;;-0.76;100.00;100371.01;1726599;81;20912;-75
2022/11/27 01:16:28;;;;;;;14.25;7.83;;;;;;;-0.80;100.00;100368.97;1727352;82;21766;-75
2022/11/27 01:18:57;;;;;;;15.05;8.65;;;;;;;-0.80;100.00;100364.41;1721517;81;20925;-75
2022/11/27 01:21:25;;;;;;;12.07;7.60;;;;;;;-0.78;100.00;100377.14;1718976;81;21446;-75
2022/11/27 01:23:52;;;;;;;12.23;7.50;;;;;;;-0.77;100.00;100370.70;1729494;81;20975;-75
2022/11/27 01:26:19;;;;;;;12.85;7.95;;;;;;;-0.80;100.00;100375.19;1721523;81;20992;-75
2022/11/27 01:28:45;;;;;;;14.15;8.28;;;;;;;-0.83;100.00;100371.59;1719323;81;21554;-75
2022/11/27 01:31:21;;;;;;;13.85;7.70;;;;;;;-0.86;100.00;100372.03;1716492;82;20958;-74
2022/11/27 01:33:58;;;;;;;13.78;8.20;;;;;;;-0.86;100.00;100372.03;1716660;81;20963;-75
2022/11/27 01:36:24;;;;;;;11.73;7.45;;;;;;;-0.84;100.00;100367.24;1742532;81;20996;-75
2022/11/27 01:38:51;;;;;;;13.93;8.18;;;;;;;-0.81;100.00;100373.54;1718661;82;21027;-75
2022/11/27 01:41:25;;;;;;;12.68;7.50;;;;;;;-0.78;100.00;100373.09;1719576;81;21174;-76
2022/11/27 01:43:55;;;;;;;12.45;8.23;;;;;;;-0.80;100.00;100362.23;1708015;81;21581;-76
2022/11/27 01:46:36;;;;;;;13.05;7.92;;;;;;;-0.78;100.00;100360.97;1712989;81;21102;-76
2022/11/27 01:49:11;;;;;;;13.48;7.40;;;;;;;-0.74;100.00;100366.22;1724595;81;21528;-75
2022/11/27 01:51:48;;;;;;;10.98;7.20;;;;;;;-0.71;100.00;100367.13;1731079;81;20952;-76
2022/11/27 01:54:15;;;;;;;11.55;7.08;;;;;;;-0.73;100.00;100361.12;1706746;82;21658;-76
2022/11/27 01:56:43;;;;;;;10.98;6.95;;;;;;;-0.72;100.00;100364.64;1747087;81;21996;-75
2022/11/27 01:59:11;;;;;;;12.23;8.00;;;;;;;-0.71;100.00;100350.94;1722898;81;20967;-75
2022/11/27 02:01:38;;;;;;;13.32;7.55;;;;;;;-0.67;100.00;100354.84;1726160;81;20987;-75
2022/11/27 02:04:04;;;;;;;13.68;7.90;;;;;;;-0.64;100.00;100352.75;1726493;81;21008;-75
2022/11/27 02:06:31;;;;;;;15.53;8.38;;;;;;;-0.68;100.00;100355.89;1713546;82;21140;-78
2022/11/27 02:08:57;;;;;;;13.98;8.30;;;;;;;-0.69;100.00;100358.28;1729666;81;21501;-76
2022/11/27 02:11:39;;;;;;;13.85;7.70;;;;;;;-0.68;100.00;100358.59;1679967;83;20992;-76
2022/11/27 02:14:18;;;;;;;11.40;7.15;;;;;;;-0.63;100.00;100363.31;1667700;84;21023;-75
2022/11/27 06:42:09;;;;;;;27.42;13.22;;;;;;;-1.14;100.00;100457.86;1797466;78;26212;-74
2022/11/27 06:44:37;;;;;;;27.00;12.78;;;;;;;-1.15;100.00;100458.38;1743178;80;20993;-75
2022/11/27 06:47:03;;;;;;;24.18;12.50;;;;;;;-1.11;100.00;100460.13;1726938;81;21531;-69
2022/11/27 06:49:30;;;;;;;25.15;12.18;;;;;;;-1.11;100.00;100458.25;1740735;81;20857;-69
2022/11/27 06:51:57;;;;;;;25.65;12.07;;;;;;;-1.08;100.00;100450.26;1746214;80;20916;-69
2022/11/27 06:54:23;;;;;;;22.77;10.98;;;;;;;-1.02;100.00;100452.08;1748982;80;20954;-77
2022/11/27 06:56:50;;;;;;;28.12;12.50;;;;;;;-0.96;100.00;100447.17;1747692;81;20920;-73
2022/11/27 06:59:17;;;;;;;26.97;11.25;;;;;;;-0.93;100.00;100444.56;1754284;80;21112;-74
2022/11/27 07:01:45;;;;;;;23.90;12.03;;;;;;;-0.88;100.00;100441.52;1733011;80;20964;-74
2022/11/27 07:04:13;;;;;;;23.60;10.60;;;;;;;-0.84;100.00;100445.94;1725727;80;20903;-72
2022/11/27 07:06:40;;;;;;;22.35;12.63;;;;;;;-0.86;100.00;100450.20;1744574;80;21026;-70
2022/11/27 07:09:06;;;;;;;24.32;12.73;;;;;;;-0.91;100.00;100450.03;1737287;81;21675;-81
2022/11/27 07:11:34;;;;;;;23.12;12.68;;;;;;;-0.92;100.00;100447.56;1742531;81;21160;-79
2022/11/27 07:14:03;;;;;;;19.48;10.70;;;;;;;-0.92;100.00;100452.95;1737948;80;20982;-72
2022/11/27 07:16:33;;;;;;;17.50;9.63;;;;;;;-0.95;100.00;100450.69;1756759;80;20935;-71
2022/11/27 07:19:04;;;;;;;21.00;10.43;;;;;;;-0.95;100.00;100448.82;1684600;83;21028;-72
2022/11/27 07:21:31;;;;;;;22.30;10.60;;;;;;;-0.90;100.00;100448.98;1740688;80;20920;-72
2022/11/27 07:23:57;;;;;;;21.20;11.22;;;;;;;-0.84;100.00;100453.51;1726144;80;21125;-71
2022/11/27 07:26:26;;;;;;;25.32;11.43;;;;;;;-0.80;100.00;100457.42;1738282;80;20971;-70
2022/11/27 07:28:52;;;;;;;24.02;12.03;;;;;;;-0.78;100.00;100457.20;1760363;80;20954;-73
2022/11/27 07:31:23;;;;;;;27.60;14.30;;;;;;;-0.74;100.00;100450.33;1695459;83;20919;-73
2022/11/27 07:33:53;;;;;;;29.40;14.03;;;;;;;-0.77;100.00;100454.80;1723509;82;20983;-72
2022/11/27 07:36:23;;;;;;;22.10;11.25;;;;;;;-0.80;100.00;100453.38;1731660;82;21673;-75
2022/11/27 07:38:50;;;;;;;25.95;12.55;;;;;;;-0.78;100.00;100453.16;1713422;83;21609;-82
2022/11/27 07:41:17;;;;;;;26.23;12.60;;;;;;;-0.78;100.00;100445.89;1693359;82;20996;-72
2022/11/27 07:43:45;;;;;;;21.75;12.40;;;;;;;-0.76;100.00;100442.45;1671671;84;20972;-74
2022/11/27 07:46:20;;;;;;;25.37;12.45;;;;;;;-0.75;100.00;100441.41;1693569;83;21022;-74
2022/11/27 07:48:47;;;;;;;26.15;13.10;;;;;;;-0.71;100.00;100447.19;1681410;84;21740;-73
2022/11/27 07:51:16;;;;;;;24.35;11.83;;;;;;;-0.69;100.00;100439.18;1657970;84;21493;-72
2022/11/27 07:53:42;;;;;;;26.25;12.63;;;;;;;-0.68;100.00;100435.96;1659271;85;20959;-75
2022/11/27 07:56:11;;;;;;;28.00;13.25;;;;;;;-0.67;100.00;100440.31;1678768;85;20955;-74
2022/11/27 07:58:38;;;;;;;24.80;12.00;;;;;;;-0.65;100.00;100442.78;1649955;85;20987;-76
2022/11/27 08:01:11;;;;;;;23.77;12.53;;;;;;;-0.64;100.00;100443.09;1673165;84;21630;-73
2022/11/27 08:03:37;;;;;;;25.72;11.28;;;;;;;-0.62;100.00;100447.73;1692729;83;20969;-76
2022/11/27 08:06:14;;;;;;;19.32;10.32;;;;;;;-0.54;100.00;100450.13;1684507;83;20902;-74
2022/11/27 08:08:41;;;;;;;20.37;10.35;;;;;;;-0.46;100.00;100450.67;1691093;83;20891;-76
2022/11/27 08:11:28;;;;;;;21.40;12.63;;;;;;;-0.43;100.00;100447.53;1696140;83;21499;-73
2022/11/27 08:13:58;;;;;;;22.37;11.60;;;;;;;-0.37;100.00;100448.52;1739161;82;21276;-74
2022/11/27 08:16:28;;;;;;;23.20;11.53;;;;;;;-0.34;100.00;100442.16;1744338;81;20993;-75
2022/11/27 08:18:56;;;;;;;22.15;11.43;;;;;;;-0.29;100.00;100445.54;1731916;81;20983;-73
2022/11/27 08:21:22;;;;;;;22.67;10.82;;;;;;;-0.29;100.00;100440.14;1716932;81;20928;-73
2022/11/27 08:23:49;;;;;;;22.77;11.00;;;;;;;-0.34;100.00;100448.90;1708663;82;20984;-75
2022/11/27 08:26:17;;;;;;;25.45;12.07;;;;;;;-0.38;100.00;100453.09;1698994;82;21086;-74
2022/11/27 08:28:44;;;;;;;19.77;11.05;;;;;;;-0.37;100.00;100456.61;1690260;83;20996;-72
2022/11/27 08:31:12;;;;;;;24.75;12.00;;;;;;;-0.36;100.00;100451.00;1697051;83;20959;-73
2022/11/27 08:33:39;;;;;;;25.77;10.88;;;;;;;-0.32;100.00;100456.77;1694390;83;20995;-72
2022/11/27 08:36:08;;;;;;;22.67;10.08;;;;;;;-0.24;100.00;100454.31;1702919;83;21020;-72
2022/11/27 08:38:34;;;;;;;23.45;10.55;;;;;;;-0.21;100.00;100457.91;1698394;83;22166;-73
2022/11/27 08:41:03;;;;;;;18.73;9.88;;;;;;;-0.18;100.00;100458.30;1682769;83;21051;-74
2022/11/27 08:43:30;;;;;;;23.62;9.78;;;;;;;-0.20;100.00;100452.82;1700821;82;20974;-73
2022/11/27 08:45:57;;;;;;;19.70;8.80;;;;;;;-0.23;100.00;100450.05;1699209;82;20995;-73
2022/11/27 08:48:24;;;;;;;25.32;10.08;;;;;;;-0.20;100.00;100453.64;1662694;83;20960;-73
2022/11/27 08:50:51;;;;;;;27.13;10.40;;;;;;;-0.21;100.00;100453.34;1678401;83;21113;-74
2022/11/27 08:53:18;;;;;;;20.12;9.30;;;;;;;-0.18;100.00;100447.50;1707491;83;20992;-74
2022/11/27 08:55:44;;;;;;;25.80;10.43;;;;;;;0.00;100.00;100445.34;1707499;83;20976;-73
2022/11/27 08:58:11;;;;;;;20.15;9.93;;;;;;;0.01;100.00;100452.36;1706233;83;21010;-74
2022/11/27 09:00:37;;;;;;;18.23;8.43;;;;;;;0.00;100.00;100454.79;1706787;83;20967;-73
2022/11/27 09:03:04;;;;;;;26.42;11.60;;;;;;;-0.01;100.00;100453.14;1710859;83;21828;-75
2022/11/27 09:05:31;;;;;;;18.45;9.75;;;;;;;0.03;100.00;100452.13;1707165;83;21081;-74
2022/11/27 09:08:01;;;;;;;20.85;9.95;;;;;;;0.03;100.00;100452.96;1707853;83;20948;-73
2022/11/27 09:10:27;;;;;;;21.62;9.33;;;;;;;0.02;100.00;100449.96;1707260;83;21557;-73
2022/11/27 09:12:55;;;;;;;16.93;9.53;;;;;;;-0.01;100.00;100445.87;1706585;83;21042;-73
2022/11/27 09:15:22;;;;;;;17.20;9.60;;;;;;;-0.03;100.00;100445.27;1705375;83;21495;-74
2022/11/27 09:17:49;;;;;;;16.45;10.13;;;;;;;-0.04;100.00;100442.79;1707016;83;20975;-74
2022/11/27 09:20:15;;;;;;;17.52;8.95;;;;;;;-0.03;100.00;100443.09;1701525;83;20983;-74
2022/11/27 09:22:42;;;;;;;17.15;8.95;;;;;;;0.03;100.00;100442.16;1706133;84;21026;-74
2022/11/27 09:25:10;;;;;;;14.68;7.97;;;;;;;0.07;100.00;100444.71;1712738;82;20996;-74
2022/11/27 09:27:37;;;;;;;14.65;8.25;;;;;;;0.04;100.00;100434.89;1710885;82;21133;-73
2022/11/27 09:30:06;;;;;;;15.78;8.85;;;;;;;0.05;100.00;100440.59;1701554;82;20999;-75
2022/11/27 09:32:33;;;;;;;19.80;8.85;;;;;;;0.08;100.00;100445.54;1690344;83;21578;-72
2022/11/27 09:35:03;;;;;;;17.23;8.38;;;;;;;0.17;100.00;100442.84;1689488;83;20980;-70
2022/11/27 09:37:30;;;;;;;22.27;9.63;;;;;;;0.27;100.00;100444.48;1687282;83;21023;-73
2022/11/27 09:39:58;;;;;;;16.27;8.50;;;;;;;0.32;100.00;100442.75;1687481;84;21557;-75
2022/11/27 09:42:54;;;;;;;16.37;9.03;;;;;;;0.36;100.00;100440.42;1695053;83;21613;-73
2022/11/27 09:45:21;;;;;;;15.65;8.30;;;;;;;0.33;100.00;100439.53;1679178;83;20947;-75
2022/11/27 09:47:53;;;;;;;15.63;8.03;;;;;;;0.30;100.00;100435.92;1689846;83;21055;-75
2022/11/27 09:50:26;;;;;;;15.00;7.90;;;;;;;0.27;100.00;100436.38;1689094;83;20959;-73
2022/11/27 09:53:00;;;;;;;11.78;6.97;;;;;;;0.25;100.00;100438.48;1696161;83;21825;-73
2022/11/27 09:55:45;;;;;;;14.03;7.78;;;;;;;0.26;100.00;100438.78;1678943;84;20946;-73
2022/11/27 09:58:21;;;;;;;21.10;9.20;;;;;;;0.29;100.00;100431.05;1695897;81;21025;-76
2022/11/27 10:00:54;;;;;;;16.12;8.10;;;;;;;0.31;100.00;100426.25;1737570;81;21099;-73
2022/11/27 10:03:25;;;;;;;16.93;8.73;;;;;;;0.36;100.00;100428.27;1741196;81;21043;-71
2022/11/27 10:06:12;;;;;;;16.05;8.08;;;;;;;0.38;100.00;100428.04;1734621;82;21224;-72
2022/11/27 10:09:22;;;;;;;14.28;8.98;;;;;;;0.41;100.00;100431.11;1697362;82;21070;-70
2022/11/27 10:12:15;;;;;;;16.02;8.48;;;;;;;0.42;100.00;100426.01;1728681;81;20987;-69
2022/11/27 10:14:49;;;;;;;15.60;8.25;;;;;;;0.42;100.00;100434.64;1731606;82;21586;-70
2022/11/27 10:17:28;;;;;;;18.20;8.53;;;;;;;0.43;100.00;100432.23;1715497;82;21150;-69
2022/11/27 10:20:30;;;;;;;21.70;8.58;;;;;;;0.46;100.00;100419.63;1722364;82;21150;-69
2022/11/27 10:23:27;;;;;;;14.30;7.78;;;;;;;0.50;100.00;100422.99;1729924;82;20931;-70
2022/11/27 10:26:01;;;;;;;16.35;9.13;;;;;;;0.55;100.00;100423.66;1730516;81;21531;-70
2022/11/27 10:28:42;;;;;;;15.35;8.15;;;;;;;0.50;100.00;100427.58;1736594;82;20993;-74
2022/11/27 10:31:36;;;;;;;14.38;8.48;;;;;;;0.49;100.00;100419.17;1735087;82;21065;-71
2022/11/27 10:34:32;;;;;;;18.75;7.85;;;;;;;0.52;100.00;100418.19;1729257;82;21719;-69
2022/11/27 10:37:00;;;;;;;136.32;28.42;;;;;;;0.54;100.00;100409.86;1669935;85;21074;-70
2022/11/27 10:39:43;;;;;;;21.60;10.72;;;;;;;0.55;100.00;100413.67;1663684;84;21064;-70
2022/11/27 10:42:33;;;;;;;18.20;9.05;;;;;;;0.53;100.00;100410.91;1711689;81;21094;-70
2022/11/27 10:45:03;;;;;;;;;;;;;;;0.45;100.00;100401.24;1727644;82;20996;-72
2022/11/27 10:47:29;;;;;;;17.85;9.40;;;;;;;0.46;100.00;100407.47;1693775;82;21573;-71
2022/11/27 10:49:56;;;;;;;17.30;9.08;;;;;;;0.47;100.00;100408.59;1733557;82;20968;-71
2022/11/27 10:52:23;;;;;;;16.65;9.28;;;;;;;0.52;100.00;100404.67;1731443;81;21020;-72
2022/11/27 10:54:56;;;;;;;18.12;9.35;;;;;;;0.57;100.00;100399.41;1731340;82;21009;-70
2022/11/27 10:57:56;;;;;;;15.75;9.00;;;;;;;0.59;100.00;100397.80;1703303;83;21071;-71
2022/11/27 11:00:23;;;;;;;14.50;7.97;;;;;;;0.64;100.00;100392.00;1721718;81;21744;-70
2022/11/27 11:03:04;;;;;;;17.98;8.98;;;;;;;0.75;100.00;100397.16;1714203;82;21030;-71
2022/11/27 11:05:33;;;;;;;16.48;9.05;;;;;;;0.82;100.00;100393.82;1704214;82;21075;-70
2022/11/27 11:08:17;;;;;;;20.23;10.15;;;;;;;0.96;100.00;100384.45;1667556;84;21008;-73
2022/11/27 11:10:59;;;;;;;18.55;9.43;;;;;;;1.13;100.00;100387.83;1690592;83;21003;-69
2022/11/27 11:13:30;;;;;;;18.87;9.93;;;;;;;1.23;100.00;100377.23;1706522;82;21190;-69
2022/11/27 11:16:16;;;;;;;16.55;8.78;;;;;;;1.25;100.00;100384.05;1720888;82;21075;-69
2022/11/27 11:18:47;;;;;;;15.58;9.05;;;;;;;1.27;100.00;100392.76;1723105;82;21107;-80
2022/11/27 11:21:33;;;;;;;19.80;8.48;;;;;;;1.25;100.00;100384.05;1743017;81;21532;-77
2022/11/27 11:24:26;;;;;;;20.45;9.40;;;;;;;1.28;100.00;100379.53;1710133;82;21019;-77
2022/11/27 11:26:57;;;;;;;17.92;8.45;;;;;;;1.27;100.00;100381.94;1699195;83;22047;-76
2022/11/27 11:29:36;;;;;;;19.03;7.17;;;;;;;1.18;100.00;100381.98;1684349;83;21644;-78
2022/11/27 11:32:21;;;;;;;22.95;8.63;;;;;;;1.11;100.00;100373.19;1689563;83;21056;-77
2022/11/27 11:35:02;;;;;;;20.02;9.13;;;;;;;1.04;100.00;100379.23;1690936;83;21103;-75
2022/11/27 11:37:37;;;;;;;19.62;10.10;;;;;;;1.05;100.00;100381.41;1686697;83;21547;-74
2022/11/27 11:40:23;;;;;;;22.45;9.23;;;;;;;1.10;100.00;100381.01;1697578;83;21498;-74
2022/11/27 11:42:57;;;;;;;14.07;8.53;;;;;;;1.03;100.00;100377.59;1696694;82;21569;-72
2022/11/27 11:45:25;;;;;;;14.00;8.15;;;;;;;0.92;100.00;100388.67;1721824;82;20999;-75
2022/11/27 11:47:55;;;;;;;16.65;8.88;;;;;;;0.85;100.00;100383.08;1735864;81;21213;-71
2022/11/27 11:50:59;;;;;;;17.77;10.60;;;;;;;0.83;100.00;100386.53;1707249;82;21002;-73
2022/11/27 11:53:36;;;;;;;18.52;10.38;;;;;;;0.91;100.00;100384.86;1720964;82;21132;-74
2022/11/27 11:56:35;;;;;;;25.80;10.82;;;;;;;0.97;100.00;100389.33;1646276;85;21049;-73
2022/11/27 11:59:23;;;;;;;18.37;10.08;;;;;;;0.87;100.00;100395.83;1652531;85;21178;-73
2022/11/27 12:02:39;;;;;;;23.42;10.48;;;;;;;0.84;100.00;100396.30;1675755;85;21013;-76
2022/11/27 12:05:26;;;;;;;23.18;12.07;;;;;;;0.81;100.00;100399.46;1668395;85;20948;-78
2022/11/27 12:08:05;;;;;;;25.85;12.80;;;;;;;0.77;100.00;100397.74;1643764;85;21145;-78
2022/11/27 12:10:50;;;;;;;23.70;11.90;;;;;;;0.75;100.00;100395.80;1742569;82;20980;-76
2022/11/27 12:13:57;;;;;;;14.55;7.65;;;;;;;0.74;100.00;100391.45;1728972;82;21078;-75
2022/11/27 12:17:00;;;;;;;12.90;7.37;;;;;;;0.74;100.00;100391.97;1732500;82;20953;-77
2022/11/27 12:20:11;;;;;;;26.33;15.70;;;;;;;0.70;100.00;100391.61;1681106;81;21130;-77
2022/11/27 12:23:18;;;;;;;27.02;14.70;;;;;;;0.71;100.00;100393.27;1732582;81;21697;-77
2022/11/27 12:26:15;;;;;;;25.25;14.65;;;;;;;0.72;100.00;100393.56;1729427;82;21009;-76
2022/11/27 12:28:59;;;;;;;22.30;11.05;;;;;;;0.68;100.00;100392.38;1721248;82;20939;-71
2022/11/27 12:31:46;;;;;;;25.12;13.25;;;;;;;0.68;100.00;100391.55;1704368;82;21032;-73
2022/11/27 12:34:51;;;;;;;22.40;11.90;;;;;;;0.71;100.00;100396.48;1709581;82;20980;-73
2022/11/27 12:37:38;;;;;;;20.97;11.83;;;;;;;0.71;100.00;100398.67;1719278;82;21205;-76
2022/11/27 12:40:25;;;;;;;30.90;15.15;;;;;;;0.69;100.00;100391.84;1725403;81;20931;-82
2022/11/27 12:43:14;;;;;;;28.92;14.75;;;;;;;0.63;100.00;100405.22;1722616;82;21016;-77
2022/11/27 12:46:03;;;;;;;22.48;10.85;;;;;;;0.57;100.00;100404.81;1730266;82;21031;-77
2022/11/27 12:48:41;;;;;;;20.55;10.30;;;;;;;0.55;100.00;100403.39;1690721;83;21016;-85
2022/11/27 12:51:26;;;;;;;16.15;9.28;;;;;;;0.59;100.00;100399.16;1645104;85;21198;-75
2022/11/27 12:54:06;;;;;;;20.62;10.43;;;;;;;0.62;100.00;100392.77;1643424;86;21087;-84
2022/11/27 12:56:43;;;;;;;22.52;11.15;;;;;;;0.62;100.00;100403.57;1648219;85;21103;-75
2022/11/27 12:59:42;;;;;;;21.00;11.03;;;;;;;0.56;100.00;100399.64;1625676;86;21041;-73
2022/11/27 13:02:25;;;;;;;20.43;11.28;;;;;;;0.50;100.00;100394.62;1647596;85;20988;-76
2022/11/27 13:04:58;;;;;;;;;;;;;;;0.50;100.00;100395.16;1657202;85;21131;-76
2022/11/27 13:07:45;;;;;;;26.70;13.05;;;;;;;0.50;100.00;100391.09;1666322;85;20096;-77
2022/11/27 13:10:26;;;;;;;32.83;15.65;;;;;;;0.51;100.00;100396.80;1633118;86;21449;-77
2022/11/27 13:13:05;;;;;;;18.73;9.53;;;;;;;0.49;100.00;100401.08;1653056;84;21003;-77
2022/11/27 13:15:51;;;;;;;18.95;9.53;;;;;;;0.42;100.00;100407.10;1686639;84;20988;-76
2022/11/27 13:18:36;;;;;;;26.50;13.03;;;;;;;0.36;100.00;100405.84;1665541;84;21902;-77
2022/11/27 13:21:10;;;;;;;21.73;10.10;;;;;;;0.35;100.00;100409.59;1641748;85;21637;-75
2022/11/27 13:23:37;;;;;;;26.57;13.55;;;;;;;0.36;100.00;100408.02;1705208;82;21510;-76
2022/11/27 13:26:29;;;;;;;23.95;12.10;;;;;;;0.37;100.00;100406.13;1707035;81;21064;-77
2022/11/27 13:29:02;;;;;;;19.27;9.60;;;;;;;0.36;100.00;100407.19;1710927;82;21596;-80
2022/11/27 13:31:34;;;;;;;22.30;10.13;;;;;;;0.32;100.00;100407.64;1716672;82;21902;-79
2022/11/27 13:34:04;;;;;;;18.40;10.05;;;;;;;0.28;100.00;100405.09;1730113;82;20980;-79
2022/11/27 13:36:40;;;;;;;16.65;9.33;;;;;;;0.29;100.00;100401.87;1703589;82;21003;-78
2022/11/27 13:39:24;;;;;;;18.02;9.95;;;;;;;0.30;100.00;100407.05;1701242;82;21062;-74
2022/11/27 13:42:05;;;;;;;20.05;11.40;;;;;;;0.33;100.00;100404.41;1722035;82;21082;-77
2022/11/27 13:44:36;;;;;;;18.90;10.63;;;;;;;0.37;100.00;100410.19;1691070;82;21192;-77
2022/11/27 13:47:12;;;;;;;21.55;11.73;;;;;;;0.39;100.00;100406.20;1702632;83;20913;-75
2022/11/27 13:49:39;;;;;;;18.23;10.23;;;;;;;0.40;100.00;100415.95;1697058;83;21067;-74
2022/11/27 13:52:15;;;;;;;21.73;10.82;;;;;;;0.37;100.00;100420.98;1700963;83;21080;-78
2022/11/27 13:54:59;;;;;;;19.05;10.45;;;;;;;0.31;100.00;100425.42;1724664;81;20978;-78
2022/11/27 13:57:27;;;;;;;22.42;10.65;;;;;;;0.24;100.00;100419.28;1694178;82;21266;-77
2022/11/27 14:00:09;;;;;;;23.70;10.90;;;;;;;0.19;100.00;100419.13;1712502;82;21102;-78
2022/11/27 14:02:49;;;;;;;23.38;10.98;;;;;;;0.13;100.00;100417.34;1701475;82;21147;-82
2022/11/27 14:05:20;;;;;;;19.50;9.90;;;;;;;0.09;100.00;100421.02;1707256;82;21042;-79
2022/11/27 14:07:50;;;;;;;25.48;13.15;;;;;;;0.08;100.00;100417.19;1712679;83;21044;-78
2022/11/27 14:10:28;;;;;;;25.88;14.15;;;;;;;0.10;100.00;100419.96;1703257;82;21185;-77
2022/11/27 14:13:01;;;;;;;22.90;11.05;;;;;;;0.12;100.00;100419.73;1714800;82;20885;-79
2022/11/27 14:15:30;;;;;;;20.08;9.80;;;;;;;0.10;100.00;100416.44;1717631;82;21230;-78
2022/11/27 14:18:20;;;;;;;25.82;12.85;;;;;;;0.09;100.00;100412.09;1727213;82;20953;-77
2022/11/27 14:20:54;;;;;;;23.92;11.80;;;;;;;0.09;100.00;100412.91;1715760;82;21125;-78
2022/11/27 14:23:32;;;;;;;25.00;13.43;;;;;;;0.05;100.00;100418.47;1710733;83;21158;-79
2022/11/27 14:26:23;;;;;;;21.02;11.85;;;;;;;0.05;100.00;100418.98;1715540;82;21081;-78
2022/11/27 14:28:54;;;;;;;24.75;12.18;;;;;;;0.07;100.00;100411.49;1655219;85;21012;-74
2022/11/27 14:31:28;;;;;;;21.90;11.83;;;;;;;0.08;100.00;100413.96;1625354;85;21726;-79
2022/11/27 14:33:55;;;;;;;23.00;11.45;;;;;;;0.05;100.00;100417.11;1637822;85;21203;-79
2022/11/27 14:36:25;;;;;;;22.93;11.70;;;;;;;0.03;100.00;100415.69;1678646;84;21161;-80
2022/11/27 14:38:52;;;;;;;24.05;11.22;;;;;;;0.03;100.00;100417.04;1715070;82;20996;-83
2022/11/27 14:41:21;;;;;;;28.40;13.78;;;;;;;0.03;100.00;100415.16;1722733;82;21051;-82
2022/11/27 14:43:48;;;;;;;27.25;12.98;;;;;;;0.00;100.00;100414.30;1710613;82;21103;-78
2022/11/27 14:46:17;;;;;;;29.60;12.68;;;;;;;-0.05;100.00;100409.57;1727322;82;21007;-77
2022/11/27 14:48:54;;;;;;;24.25;12.05;;;;;;;-0.08;100.00;100415.42;1698108;82;21185;-79
2022/11/27 14:51:30;;;;;;;24.87;12.70;;;;;;;-0.05;100.00;100415.50;1702687;82;21497;-77
2022/11/27 14:53:59;;;;;;;26.45;12.43;;;;;;;-0.05;100.00;100420.90;1699174;83;22543;-82
2022/11/27 14:56:33;;;;;;;22.15;10.72;;;;;;;-0.06;100.00;100424.12;1703351;83;21055;-85
2022/11/27 14:59:01;;;;;;;25.02;12.58;;;;;;;-0.06;100.00;100425.47;1704981;83;21043;-87
2022/11/27 15:01:33;;;;;;;25.65;13.20;;;;;;;-0.07;100.00;100426.52;1711392;82;21521;-86
2022/11/27 15:04:04;;;;;;;22.35;10.93;;;;;;;-0.09;100.00;100416.47;1719013;82;21097;-85
2022/11/27 15:06:37;;;;;;;24.12;11.83;;;;;;;-0.07;100.00;100416.25;1718419;82;21019;-86
2022/11/27 15:09:05;;;;;;;21.75;11.60;;;;;;;-0.08;100.00;100416.77;1714955;82;20995;-83
2022/11/27 15:11:33;;;;;;;24.12;11.57;;;;;;;-0.10;100.00;100418.05;1741115;82;21098;-78
2022/11/27 15:14:00;;;;;;;25.80;11.75;;;;;;;-0.13;100.00;100419.31;1723345;82;21111;-76
2022/11/27 15:16:29;;;;;;;23.60;11.50;;;;;;;-0.11;100.00;100421.80;1729982;82;21051;-77
2022/11/27 15:19:01;;;;;;;23.62;11.33;;;;;;;-0.12;100.00;100420.97;1718376;82;20996;-79
2022/11/27 15:21:28;;;;;;;24.67;12.10;;;;;;;-0.15;100.00;100421.42;1713760;82;21044;-73
2022/11/27 15:23:55;;;;;;;23.30;12.47;;;;;;;-0.17;100.00;100420.81;1722152;82;21020;-73
2022/11/27 15:26:38;;;;;;;31.65;13.85;;;;;;;-0.16;100.00;100421.11;1723504;82;21776;-78
2022/11/27 15:29:28;;;;;;;30.10;14.05;;;;;;;-0.14;100.00;100423.59;1728072;82;20944;-76
2022/11/27 15:31:57;;;;;;;29.02;14.20;;;;;;;-0.11;100.00;100427.19;1714320;82;21443;-74
2022/11/27 15:34:24;;;;;;;29.18;12.90;;;;;;;-0.09;100.00;100429.97;1719970;82;21086;-77
2022/11/27 15:37:02;;;;;;;27.62;13.13;;;;;;;-0.07;100.00;100427.87;1718919;82;21080;-83
2022/11/27 15:39:55;;;;;;;24.82;12.75;;;;;;;-0.08;100.00;100422.17;1706208;82;21251;-80
2022/11/27 15:42:23;;;;;;;25.12;12.90;;;;;;;-0.11;100.00;100421.80;1702788;82;21174;-75
2022/11/27 15:44:56;;;;;;;26.12;12.20;;;;;;;-0.14;100.00;100423.59;1711823;82;21010;-82
2022/11/27 15:47:36;;;;;;;21.70;10.72;;;;;;;-0.13;100.00;100416.62;1707847;82;21011;-80
2022/11/27 15:50:08;;;;;;;24.07;11.65;;;;;;;-0.14;100.00;100419.02;1714545;82;20999;-83
2022/11/27 15:52:32;;;;;;;27.17;13.62;;;;;;;-0.13;100.00;100421.19;1703589;83;21726;-82
2022/11/27 15:54:59;;;;;;;27.58;12.70;;;;;;;-0.10;100.00;100424.27;1707099;83;21110;-82
2022/11/27 15:57:28;;;;;;;21.52;11.40;;;;;;;-0.10;100.00;100422.09;1705789;83;21482;-82
2022/11/27 15:59:55;;;;;;;25.88;12.98;;;;;;;-0.11;100.00;100428.02;1706455;82;21541;-84
2022/11/27 16:02:27;;;;;;;24.65;13.80;;;;;;;-0.16;100.00;100425.16;1705043;83;21110;-79
2022/11/27 16:04:51;;;;;;;24.60;12.63;;;;;;;-0.13;100.00;100432.81;1707193;82;21284;-77
2022/11/27 16:07:17;;;;;;;30.62;14.20;;;;;;;-0.09;100.00;100429.14;1711161;83;21479;-79
2022/11/27 16:09:46;;;;;;;34.83;16.62;;;;;;;-0.15;100.00;100428.16;1700618;82;21081;-77
2022/11/27 16:12:15;;;;;;;28.62;13.62;;;;;;;-0.15;100.00;100428.16;1709919;82;21059;-78
2022/11/27 16:14:42;;;;;;;30.37;14.63;;;;;;;-0.13;100.00;100424.72;1723705;82;21011;-80